createdAt,value
2023-04-19T00:02:02.390Z,9.00
2023-04-19T00:04:30.250Z,9.37
2023-04-19T00:06:58.481Z,9.10
2023-04-19T00:09:25.409Z,8.20
2023-04-19T00:11:53.066Z,9.40
2023-04-19T00:14:19.829Z,8.80
2023-04-19T00:16:46.658Z,9.07
2023-04-19T00:19:13.374Z,8.30
2023-04-19T00:21:40.235Z,8.70
2023-04-19T00:24:06.972Z,9.90
2023-04-19T00:26:33.677Z,8.90
2023-04-19T00:29:00.561Z,9.60
2023-04-19T00:31:27.463Z,8.80
2023-04-19T00:33:54.226Z,9.73
2023-04-19T00:36:20.918Z,9.00
2023-04-19T00:38:47.689Z,9.77
2023-04-19T00:41:14.501Z,9.20
2023-04-19T00:43:41.206Z,9.97
2023-04-19T00:46:07.952Z,9.97
2023-04-19T00:48:36.380Z,9.77
2023-04-19T00:51:04.043Z,9.30
2023-04-19T00:53:31.393Z,8.70
2023-04-19T00:56:02.136Z,9.63
2023-04-19T00:58:31.450Z,9.27
2023-04-19T01:00:58.719Z,9.27
2023-04-19T01:03:27.519Z,9.80
2023-04-19T01:05:55.135Z,9.37
2023-04-19T01:08:21.904Z,9.70
2023-04-19T01:10:48.747Z,10.07
2023-04-19T01:13:16.491Z,9.63
2023-04-19T01:15:43.821Z,11.00
2023-04-19T01:18:11.440Z,10.50
2023-04-19T01:20:38.117Z,10.73
2023-04-19T01:23:05.140Z,10.40
2023-04-19T01:25:32.829Z,10.40
2023-04-19T01:27:59.690Z,11.20
2023-04-19T01:30:26.329Z,11.23
2023-04-19T01:32:53.102Z,11.77
2023-04-19T01:35:19.994Z,12.33
2023-04-19T01:37:46.851Z,11.17
2023-04-19T01:40:13.883Z,12.40
2023-04-19T01:42:40.708Z,11.00
2023-04-19T01:45:07.847Z,12.77
2023-04-19T01:47:34.572Z,13.10
2023-04-19T01:50:01.295Z,12.63
2023-04-19T01:52:27.961Z,12.63
2023-04-19T01:54:54.627Z,12.27
2023-04-19T01:57:21.470Z,12.77
2023-04-19T01:59:48.396Z,13.83
2023-04-19T02:02:15.238Z,13.50
2023-04-19T02:04:41.970Z,13.60
2023-04-19T02:07:08.680Z,14.60
2023-04-19T02:09:38.821Z,14.57
2023-04-19T02:12:05.831Z,16.03
2023-04-19T02:14:32.546Z,14.57
2023-04-19T02:16:59.233Z,14.20
2023-04-19T02:19:25.886Z,14.17
2023-04-19T02:21:53.724Z,14.30
2023-04-19T02:24:20.500Z,14.00
2023-04-19T02:26:47.234Z,14.40
2023-04-19T02:29:14.209Z,15.33
2023-04-19T02:31:41.034Z,15.93
2023-04-19T02:34:07.762Z,16.00
2023-04-19T02:36:34.481Z,15.53
2023-04-19T02:39:01.252Z,16.17
2023-04-19T02:41:27.943Z,16.40
2023-04-19T02:43:54.585Z,16.63
2023-04-19T02:46:21.351Z,16.13
2023-04-19T02:48:48.035Z,16.67
2023-04-19T02:51:16.775Z,16.70
2023-04-19T02:53:43.798Z,17.27
2023-04-19T02:56:10.511Z,16.97
2023-04-19T02:58:37.186Z,16.47
2023-04-19T03:01:04.068Z,17.00
2023-04-19T03:03:30.812Z,17.63
2023-04-19T03:05:57.982Z,17.40
2023-04-19T03:08:24.779Z,20.67
2023-04-19T03:10:51.492Z,19.87
2023-04-19T03:13:18.137Z,19.43
2023-04-19T03:15:44.872Z,19.33
2023-04-19T03:18:11.589Z,18.80
2023-04-19T03:20:38.305Z,20.07
2023-04-19T03:23:05.083Z,20.27
2023-04-19T03:25:33.161Z,21.30
2023-04-19T03:28:00.010Z,18.60
2023-04-19T03:30:26.729Z,19.47
2023-04-19T03:32:53.465Z,19.67
2023-04-19T03:35:21.091Z,20.10
2023-04-19T03:37:47.826Z,22.50
2023-04-19T03:40:14.547Z,22.53
2023-04-19T03:42:41.218Z,20.73
2023-04-19T03:45:08.362Z,19.70
2023-04-19T03:47:35.183Z,22.10
2023-04-19T03:50:01.872Z,21.03
2023-04-19T03:52:28.562Z,22.10
2023-04-19T03:54:55.254Z,21.07
2023-04-19T03:57:22.173Z,21.53
2023-04-19T03:59:48.881Z,24.10
2023-04-19T04:02:15.796Z,22.63
2023-04-19T04:04:42.652Z,23.50
2023-04-19T04:07:09.540Z,22.60
2023-04-19T04:09:37.039Z,25.47
2023-04-19T04:12:03.785Z,23.50
2023-04-19T04:14:30.567Z,23.73
2023-04-19T04:16:57.284Z,24.90
2023-04-19T04:19:23.955Z,25.00
2023-04-19T04:21:50.631Z,25.43
2023-04-19T04:24:17.866Z,25.33
2023-04-19T04:26:44.649Z,24.07
2023-04-19T04:29:11.386Z,23.70
2023-04-19T04:31:38.263Z,23.63
2023-04-19T04:34:04.986Z,22.23
2023-04-19T04:36:31.900Z,23.23
2023-04-19T04:39:01.841Z,24.30
2023-04-19T04:41:31.355Z,23.40
2023-04-19T04:44:11.998Z,23.20
2023-04-19T04:46:39.484Z,22.90
2023-04-19T04:49:07.338Z,22.90
2023-04-19T04:51:34.653Z,23.57
2023-04-19T04:54:01.531Z,23.90
2023-04-19T04:56:28.320Z,24.37
2023-04-19T04:58:55.026Z,22.97
2023-04-19T05:01:22.937Z,25.20
2023-04-19T05:03:50.747Z,22.80
2023-04-19T05:06:17.475Z,23.93
2023-04-19T05:08:45.303Z,23.83
2023-04-19T05:11:12.154Z,21.90
2023-04-19T05:13:38.840Z,23.03
2023-04-19T05:16:06.095Z,24.50
2023-04-19T05:18:33.128Z,22.40
2023-04-19T05:21:00.002Z,21.90
2023-04-19T05:23:26.680Z,22.13
2023-04-19T05:25:53.347Z,22.73
2023-04-19T05:28:20.113Z,23.67
2023-04-19T05:30:46.850Z,22.80
2023-04-19T05:33:13.543Z,23.40
2023-04-19T05:35:40.336Z,22.70
2023-04-19T05:38:07.126Z,24.30
2023-04-19T05:40:35.498Z,23.07
2023-04-19T05:43:02.378Z,22.47
2023-04-19T05:45:29.137Z,23.00
2023-04-19T05:47:56.302Z,22.93
2023-04-19T05:50:23.137Z,22.03
2023-04-19T05:52:49.843Z,23.43
2023-04-19T05:55:18.280Z,24.03
2023-04-19T05:57:44.959Z,22.60
2023-04-19T06:00:12.126Z,22.93
2023-04-19T06:02:38.908Z,22.67
2023-04-19T06:05:09.975Z,22.90
2023-04-19T06:07:43.263Z,22.00
2023-04-19T06:10:17.360Z,22.50
2023-04-19T06:12:44.167Z,22.63
2023-04-19T06:15:11.864Z,22.23
2023-04-19T06:17:38.690Z,22.23
2023-04-19T06:20:08.325Z,22.17
2023-04-19T06:22:35.192Z,21.23
2023-04-19T06:25:02.250Z,23.00
2023-04-19T06:27:29.058Z,23.40
2023-04-19T06:29:56.102Z,21.77
2023-04-19T06:32:23.200Z,22.30
2023-04-19T06:34:50.184Z,22.33
2023-04-19T06:37:17.373Z,23.53
2023-04-19T06:39:44.235Z,22.40
2023-04-19T06:42:12.383Z,21.87
2023-04-19T06:44:39.533Z,22.30
2023-04-19T06:47:06.369Z,22.23
2023-04-19T06:49:33.548Z,21.23
2023-04-19T06:52:00.437Z,20.57
2023-04-19T06:54:27.215Z,21.17
2023-04-19T06:56:54.195Z,22.87
2023-04-19T06:59:21.749Z,19.90
2023-04-19T07:01:49.039Z,21.70
2023-04-19T07:04:16.654Z,22.30
2023-04-19T07:06:43.732Z,23.13
2023-04-19T07:09:10.628Z,21.67
2023-04-19T07:11:37.476Z,20.63
2023-04-19T07:14:04.213Z,20.83
2023-04-19T07:16:31.052Z,21.97
2023-04-19T07:18:57.934Z,21.67
2023-04-19T07:21:32.865Z,21.97
2023-04-19T07:24:00.383Z,22.07
2023-04-19T07:26:27.356Z,22.43
2023-04-19T07:28:54.091Z,20.87
2023-04-19T07:31:21.230Z,19.93
2023-04-19T07:33:48.046Z,20.90
2023-04-19T07:36:14.726Z,21.37
2023-04-19T07:38:41.940Z,21.03
2023-04-19T07:41:09.106Z,19.83
2023-04-19T07:43:38.598Z,20.50
2023-04-19T07:46:14.353Z,19.73
2023-04-19T07:48:41.133Z,17.87
2023-04-19T07:51:12.596Z,19.27
2023-04-19T07:53:41.625Z,19.90
2023-04-19T07:56:10.456Z,20.20
2023-04-19T07:58:39.631Z,18.93
2023-04-19T08:01:07.121Z,18.97
2023-04-19T08:03:34.569Z,19.50
2023-04-19T08:06:02.388Z,18.13
2023-04-19T08:08:29.173Z,19.60
2023-04-19T08:10:56.146Z,18.57
2023-04-19T08:13:23.200Z,18.30
2023-04-19T08:18:19.785Z,18.00
2023-04-19T08:20:47.525Z,17.67
2023-04-19T08:23:22.965Z,17.60
2023-04-19T08:25:52.699Z,18.43
2023-04-19T08:28:19.578Z,16.50
2023-04-19T08:30:46.413Z,16.20
2023-04-19T08:33:13.205Z,16.53
2023-04-19T08:35:41.831Z,16.77
2023-04-19T08:38:09.322Z,15.73
2023-04-19T08:40:38.271Z,16.20
2023-04-19T08:43:07.851Z,16.53
2023-04-19T08:45:35.735Z,16.57
2023-04-19T08:48:04.204Z,16.80
2023-04-19T08:50:38.435Z,16.20
2023-04-19T08:56:03.366Z,14.77
2023-04-19T08:58:46.441Z,15.97
2023-04-19T09:01:34.039Z,15.40
2023-04-19T09:04:31.833Z,15.53
2023-04-19T09:06:54.810Z,14.40
2023-04-19T09:09:38.611Z,14.30
2023-04-19T09:12:20.155Z,15.03
2023-04-19T09:15:00.360Z,15.67
2023-04-19T09:17:28.683Z,15.13
2023-04-19T09:19:55.426Z,15.43
2023-04-19T09:22:22.286Z,14.97
2023-04-19T09:27:33.777Z,15.93
2023-04-19T09:30:02.660Z,17.70
2023-04-19T09:32:44.417Z,15.43
2023-04-19T09:35:11.235Z,15.33
2023-04-19T09:38:01.894Z,16.00
2023-04-19T09:40:28.444Z,17.10
2023-04-19T09:43:08.821Z,18.57
2023-04-19T09:45:46.496Z,17.80
2023-04-19T09:48:14.160Z,18.20
2023-04-19T09:51:02.781Z,18.10
2023-04-19T09:53:34.589Z,17.80
2023-04-19T09:56:02.965Z,15.80
2023-04-19T09:58:46.312Z,17.57
2023-04-19T10:01:19.987Z,17.00
2023-04-19T10:03:49.760Z,17.90
2023-04-19T10:08:50.171Z,17.10
2023-04-19T10:11:18.618Z,17.03
2023-04-19T10:13:47.223Z,17.80
2023-04-19T10:16:19.559Z,16.50
2023-04-19T10:18:50.489Z,16.47
2023-04-19T10:21:19.232Z,16.80
2023-04-19T10:23:46.982Z,16.43
2023-04-19T10:26:13.714Z,16.33
2023-04-19T10:28:42.276Z,16.07
2023-04-19T10:31:12.849Z,20.53
2023-04-19T10:33:40.479Z,18.87
2023-04-19T10:36:14.136Z,18.57
2023-04-19T10:38:48.228Z,17.53
2023-04-19T10:41:17.838Z,17.13
2023-04-19T10:43:55.354Z,17.93
2023-04-19T10:46:22.559Z,18.30
2023-04-19T10:48:54.889Z,17.03
2023-04-19T10:51:33.974Z,17.20
2023-04-19T10:54:01.830Z,17.17
2023-04-19T10:56:34.705Z,16.57
2023-04-19T10:59:07.771Z,18.80
2023-04-19T11:01:55.610Z,17.23
2023-04-19T11:04:51.222Z,17.57
2023-04-19T11:07:18.640Z,16.03
2023-04-19T11:09:46.551Z,17.27
2023-04-19T11:12:14.890Z,17.67
2023-04-19T11:14:41.601Z,16.93
2023-04-19T11:17:32.099Z,16.47
2023-04-19T11:20:07.179Z,18.87
2023-04-19T11:22:39.600Z,20.07
2023-04-19T11:25:13.820Z,20.33
2023-04-19T11:27:45.956Z,19.60
2023-04-19T11:30:18.181Z,18.97
2023-04-19T11:32:55.387Z,19.57
2023-04-19T11:35:23.007Z,21.90
2023-04-19T11:37:50.352Z,19.80
2023-04-19T11:40:18.847Z,19.87
2023-04-19T11:42:46.011Z,20.20
2023-04-19T11:45:38.241Z,21.10
2023-04-19T11:48:07.425Z,20.97
2023-04-19T11:50:40.693Z,21.90
2023-04-19T11:53:12.016Z,22.27
2023-04-19T11:55:39.045Z,22.20
2023-04-19T11:58:11.648Z,23.00
2023-04-19T12:00:38.406Z,14.57
2023-04-19T12:03:05.651Z,11.87
2023-04-19T12:05:32.964Z,10.80
2023-04-19T12:08:08.416Z,10.40
2023-04-19T12:10:36.056Z,9.90
2023-04-19T12:13:18.110Z,10.17
2023-04-19T12:15:46.585Z,10.20
2023-04-19T12:18:13.797Z,10.53
2023-04-19T12:20:48.318Z,10.37
2023-04-19T12:23:16.568Z,8.60
2023-04-19T12:25:49.041Z,9.10
2023-04-19T12:28:16.902Z,9.43
2023-04-19T12:30:44.204Z,8.57
2023-04-19T12:33:11.612Z,9.80
2023-04-19T12:35:39.222Z,8.50
2023-04-19T12:38:06.156Z,9.70
2023-04-19T12:40:33.280Z,9.07
2023-04-19T12:43:00.027Z,8.70
2023-04-19T12:45:26.987Z,9.00
2023-04-19T12:47:53.877Z,9.87
2023-04-19T12:50:20.800Z,9.47
2023-04-19T12:52:47.713Z,8.97
2023-04-19T12:55:14.491Z,8.07
2023-04-19T12:57:41.688Z,8.07
2023-04-19T13:00:11.048Z,9.40
2023-04-19T13:02:38.432Z,8.27
2023-04-19T13:05:06.370Z,7.70
2023-04-19T13:07:33.230Z,5.97
2023-04-19T13:10:00.314Z,4.83
2023-04-19T13:12:28.377Z,4.97
2023-04-19T13:14:55.106Z,4.60
2023-04-19T13:17:22.111Z,5.27
2023-04-19T13:19:48.927Z,5.00
2023-04-19T13:22:15.901Z,5.60
2023-04-19T13:24:42.573Z,4.37
2023-04-19T13:27:09.512Z,3.80
2023-04-19T13:29:37.144Z,3.93
2023-04-19T13:32:07.312Z,3.80
2023-04-19T13:34:35.388Z,3.40
2023-04-19T13:37:02.122Z,3.20
2023-04-19T13:39:29.157Z,3.37
2023-04-19T13:41:55.959Z,3.47
2023-04-19T13:44:22.968Z,4.23
2023-04-19T13:46:49.919Z,4.47
2023-04-19T13:49:17.429Z,5.17
2023-04-19T13:51:50.175Z,3.67
2023-04-19T13:54:18.863Z,4.03
2023-04-19T13:56:46.048Z,3.80
2023-04-19T13:59:12.890Z,5.10
2023-04-19T14:01:39.660Z,5.57
2023-04-19T14:04:06.896Z,5.33
2023-04-19T14:06:33.890Z,4.97
2023-04-19T14:09:00.613Z,4.83
2023-04-19T14:11:27.715Z,4.90
2023-04-19T14:13:56.238Z,5.50
2023-04-19T14:16:25.538Z,7.30
2023-04-19T14:18:52.648Z,6.50
2023-04-19T14:21:19.588Z,6.07
2023-04-19T14:23:46.499Z,5.13
2023-04-19T14:26:13.435Z,5.43
2023-04-19T14:28:40.384Z,4.93
2023-04-19T14:31:07.170Z,4.80
2023-04-19T14:33:33.876Z,5.00
2023-04-19T14:36:01.239Z,5.13
2023-04-19T14:38:27.970Z,5.27
2023-04-19T14:40:54.973Z,6.00
2023-04-19T14:43:21.700Z,5.93
2023-04-19T14:45:50.018Z,4.70
2023-04-19T14:48:16.965Z,4.00
2023-04-19T14:50:43.776Z,5.47
2023-04-19T14:53:10.514Z,6.20
2023-04-19T14:55:40.506Z,6.83
2023-04-19T14:58:07.456Z,5.80
2023-04-19T15:00:34.469Z,6.20
2023-04-19T15:03:01.882Z,6.17
2023-04-19T15:05:28.925Z,5.53
2023-04-19T15:07:55.704Z,5.60
2023-04-19T15:10:22.443Z,6.03
2023-04-19T15:12:49.334Z,5.43
2023-04-19T15:15:16.408Z,5.87
2023-04-19T15:17:43.288Z,6.23
2023-04-19T15:20:10.236Z,5.73
2023-04-19T15:22:36.989Z,6.10
2023-04-19T15:25:04.013Z,6.60
2023-04-19T15:27:31.453Z,6.87
2023-04-19T15:29:58.208Z,6.13
2023-04-19T15:32:25.195Z,9.43
2023-04-19T15:34:51.963Z,7.13
2023-04-19T15:37:18.745Z,6.97
2023-04-19T15:39:45.574Z,6.70
2023-04-19T15:42:12.303Z,5.70
2023-04-19T15:44:39.043Z,6.80
2023-04-19T15:47:05.768Z,6.30
2023-04-19T15:49:32.680Z,7.60
2023-04-19T15:51:59.346Z,4.77
2023-04-19T15:54:27.177Z,6.87
2023-04-19T15:56:54.596Z,9.53
2023-04-19T15:59:21.313Z,8.70
2023-04-19T16:01:48.105Z,7.10
2023-04-19T16:04:15.229Z,7.17
2023-04-19T16:06:42.465Z,8.50
2023-04-19T16:09:09.270Z,8.67
2023-04-19T16:11:36.070Z,8.43
2023-04-19T16:14:02.820Z,10.63
2023-04-19T16:16:33.036Z,8.80
2023-04-19T16:19:00.034Z,10.77
2023-04-19T16:21:28.600Z,7.10
2023-04-19T16:23:56.126Z,5.00
2023-04-19T16:26:23.195Z,4.80
2023-04-19T16:28:49.930Z,4.50
2023-04-19T16:31:16.759Z,4.30
2023-04-19T16:33:43.593Z,3.73
2023-04-19T16:36:10.353Z,4.50
2023-04-19T16:38:37.048Z,4.67
2023-04-19T16:41:05.629Z,4.10
2023-04-19T16:43:32.629Z,4.67
2023-04-19T16:45:59.410Z,3.70
2023-04-19T16:48:26.980Z,4.07
2023-04-19T16:50:53.671Z,4.60
2023-04-19T16:53:20.801Z,4.53
2023-04-19T16:55:47.500Z,5.20
2023-04-19T16:58:14.361Z,4.20
2023-04-19T17:00:41.237Z,4.13
2023-04-19T17:03:09.578Z,4.60
2023-04-19T17:05:36.652Z,4.80
2023-04-19T17:08:03.457Z,5.00
2023-04-19T17:10:30.216Z,4.40
2023-04-19T17:12:56.984Z,4.33
2023-04-19T17:15:23.827Z,4.40
2023-04-19T17:17:50.679Z,3.53
2023-04-19T17:20:17.552Z,4.33
2023-04-19T17:22:44.256Z,3.53
2023-04-19T17:25:11.070Z,4.00
2023-04-19T17:27:38.968Z,3.97
2023-04-19T17:30:07.265Z,4.13
2023-04-19T17:32:34.155Z,4.17
2023-04-19T17:35:00.914Z,3.67
2023-04-19T17:37:27.601Z,4.57
2023-04-19T17:39:54.307Z,4.57
2023-04-19T17:42:21.582Z,4.57
2023-04-19T17:44:48.276Z,4.60
2023-04-19T17:47:15.007Z,4.70
2023-04-19T17:49:45.776Z,4.57
2023-04-19T17:52:13.351Z,4.53
2023-04-19T17:54:40.132Z,3.90
2023-04-19T17:57:06.984Z,3.70
2023-04-19T17:59:33.761Z,4.03
2023-04-19T18:02:00.650Z,3.93
2023-04-19T18:04:27.484Z,3.33
2023-04-19T18:06:54.275Z,5.00
2023-04-19T18:09:21.048Z,4.20
2023-04-19T18:11:47.853Z,4.20
2023-04-19T18:14:15.402Z,3.87
2023-04-19T18:16:42.271Z,4.57
2023-04-19T18:19:09.167Z,4.47
2023-04-19T18:21:35.941Z,4.30
2023-04-19T18:24:02.815Z,3.77
2023-04-19T18:26:40.338Z,3.87
2023-04-19T18:29:07.129Z,3.23
2023-04-19T18:31:33.954Z,3.47
2023-04-19T18:34:01.523Z,4.00
2023-04-19T18:36:28.824Z,4.63
2023-04-19T18:38:56.003Z,4.07
2023-04-19T18:41:23.074Z,4.07
2023-04-19T18:44:08.090Z,3.57
2023-04-19T18:46:36.485Z,3.67
2023-04-19T18:49:03.186Z,3.50
2023-04-19T18:51:30.656Z,3.90
2023-04-19T18:53:57.356Z,5.83
2023-04-19T18:56:54.257Z,3.70
2023-04-19T18:59:10.716Z,3.40
2023-04-19T19:01:38.001Z,3.17
2023-04-19T19:06:35.181Z,3.27
2023-04-19T19:09:01.968Z,2.80
2023-04-19T19:11:51.920Z,3.43
2023-04-19T19:14:15.459Z,3.23
2023-04-19T19:16:51.403Z,3.07
2023-04-19T19:19:20.683Z,3.83
2023-04-19T19:21:47.541Z,3.93
2023-04-19T19:24:14.408Z,4.50
2023-04-19T19:26:41.231Z,4.73
2023-04-19T19:29:09.397Z,3.63
2023-04-19T19:31:36.740Z,3.27
2023-04-19T19:34:23.421Z,3.00
2023-04-19T19:36:50.589Z,3.10
2023-04-19T19:39:17.634Z,3.17
2023-04-19T19:44:15.307Z,2.87
2023-04-19T19:46:42.018Z,2.50
2023-04-19T19:49:12.867Z,3.40
2023-04-19T19:51:53.110Z,2.93
2023-04-19T19:54:24.054Z,3.43
2023-04-19T19:59:22.722Z,3.00
2023-04-19T20:01:55.746Z,3.20
2023-04-19T20:04:23.005Z,2.77
2023-04-19T20:09:20.262Z,2.33
2023-04-19T20:11:47.117Z,2.50
2023-04-19T20:14:13.765Z,2.70
2023-04-19T20:16:40.728Z,2.37
2023-04-19T20:19:09.829Z,2.30
2023-04-19T20:21:37.961Z,2.80
2023-04-19T20:24:05.899Z,2.50
2023-04-19T20:26:33.349Z,2.40
2023-04-19T20:29:01.190Z,2.83
2023-04-19T20:31:28.109Z,2.37
2023-04-19T20:33:54.933Z,2.50
2023-04-19T20:36:23.373Z,2.87
2023-04-19T20:38:50.733Z,2.93
2023-04-19T20:41:22.245Z,2.83
2023-04-19T20:43:48.978Z,3.07
2023-04-19T20:46:16.832Z,2.53
2023-04-19T20:48:43.642Z,3.37
2023-04-19T20:51:12.567Z,3.13
2023-04-19T20:53:39.456Z,3.87
2023-04-19T20:56:06.201Z,3.90
2023-04-19T20:58:33.823Z,3.97
2023-04-19T21:01:00.701Z,2.90
2023-04-19T21:03:27.527Z,3.10
2023-04-19T21:05:54.451Z,3.03
2023-04-19T21:08:23.648Z,3.20
2023-04-19T21:10:50.415Z,3.40
2023-04-19T21:13:17.089Z,4.40
2023-04-19T21:15:43.837Z,4.17
2023-04-19T21:18:10.795Z,4.33
2023-04-19T21:20:37.913Z,3.80
2023-04-19T21:23:04.650Z,3.70
2023-04-19T21:25:31.441Z,4.20
2023-04-19T21:27:58.151Z,4.50
2023-04-19T21:30:25.673Z,3.93
2023-04-19T21:32:53.009Z,3.30
2023-04-19T21:35:19.916Z,3.40
2023-04-19T21:37:46.684Z,3.97
2023-04-19T21:40:13.509Z,4.10
2023-04-19T21:42:40.253Z,3.83
2023-04-19T21:45:07.742Z,4.20
2023-04-19T21:47:34.570Z,3.27
2023-04-19T21:50:01.351Z,3.30
2023-04-19T21:52:28.087Z,3.67
2023-04-19T21:54:54.970Z,4.30
2023-04-19T21:57:24.592Z,3.93
2023-04-19T21:59:51.328Z,3.93
2023-04-19T22:02:18.162Z,4.10
2023-04-19T22:04:45.753Z,4.50
2023-04-19T22:07:12.594Z,3.83
2023-04-19T22:09:39.489Z,3.50
2023-04-19T22:12:06.711Z,3.80
2023-04-19T22:14:33.670Z,4.17
2023-04-19T22:17:02.509Z,4.47
2023-04-19T22:19:29.665Z,4.93
2023-04-19T22:21:56.826Z,4.03
2023-04-19T22:24:23.819Z,4.40
2023-04-19T22:26:51.069Z,3.90
2023-04-19T22:29:18.150Z,3.97
2023-04-19T22:31:45.188Z,4.50
2023-04-19T22:34:11.931Z,4.50
2023-04-19T22:36:38.720Z,4.40
2023-04-19T22:39:05.519Z,4.70
2023-04-19T22:41:33.284Z,4.67
2023-04-19T22:44:00.475Z,5.10
2023-04-19T22:46:27.518Z,4.30
2023-04-19T22:48:56.019Z,4.67
2023-04-19T22:51:24.289Z,5.37
2023-04-19T22:53:51.085Z,4.90
2023-04-19T22:56:17.858Z,5.13
2023-04-19T22:58:44.666Z,5.30
2023-04-19T23:01:11.570Z,5.57
2023-04-19T23:03:38.286Z,5.27
2023-04-19T23:06:05.225Z,5.77
2023-04-19T23:08:33.582Z,6.00
2023-04-19T23:11:00.416Z,5.50
2023-04-19T23:13:27.188Z,6.30
2023-04-19T23:15:54.767Z,5.20
2023-04-19T23:18:21.715Z,5.90
2023-04-19T23:20:48.428Z,6.13
2023-04-19T23:23:15.334Z,6.73
2023-04-19T23:25:42.371Z,5.97
2023-04-19T23:28:11.861Z,6.13
2023-04-19T23:30:39.294Z,5.30
2023-04-19T23:33:06.412Z,6.30
2023-04-19T23:35:33.197Z,5.83
2023-04-19T23:37:59.863Z,6.00
2023-04-19T23:40:26.572Z,5.50
2023-04-19T23:42:53.270Z,6.63
2023-04-19T23:45:20.344Z,6.60
2023-04-19T23:47:47.162Z,6.90
2023-04-19T23:50:13.903Z,6.63
2023-04-19T23:52:41.028Z,6.37
2023-04-19T23:55:08.061Z,6.77
2023-04-19T23:57:35.786Z,6.50
